Time;durP1;ratioP1;P1;durP2;ratioP2;P2;SDS_P1;SDS_P2;PMS_P1;PMS_P2;Temp;Humidity;BMP_temperature;BMP_pressure;BME280_temperature;BME280_humidity;BME280_pressure;Samples;Min_cycle;Max_cycle;Signal;HPM_P1;HPM_P2
2022/06/22 00:02:34;;;;;;;5.32;4.68;;;13.30;99.90;;;;;;5044870;28;20046;-76
2022/06/22 00:05:06;;;;;;;5.88;5.38;;;13.20;99.90;;;;;;5043942;28;20095;-76
2022/06/22 00:07:42;;;;;;;5.28;4.65;;;13.00;99.90;;;;;;5045147;28;20128;-77
2022/06/22 00:10:31;;;;;;;5.13;4.60;;;13.00;99.90;;;;;;5045702;28;20482;-76
2022/06/22 00:12:59;;;;;;;5.00;4.18;;;12.90;99.90;;;;;;5046944;28;20041;-76
2022/06/22 00:15:45;;;;;;;4.70;4.20;;;13.00;99.90;;;;;;5046019;28;20128;-76
2022/06/22 00:18:34;;;;;;;5.03;4.53;;;12.90;99.90;;;;;;5043938;28;20510;-77
2022/06/22 00:21:15;;;;;;;6.43;4.68;;;13.00;99.90;;;;;;5046339;28;20045;-77
2022/06/22 00:23:44;;;;;;;5.63;5.05;;;13.10;99.90;;;;;;5047672;28;20129;-77
2022/06/22 00:26:24;;;;;;;6.50;5.20;;;13.10;99.90;;;;;;5048516;28;20090;-78
2022/06/22 00:28:56;;;;;;;6.72;4.43;;;13.00;99.90;;;;;;5044544;28;20069;-78
2022/06/22 00:31:38;;;;;;;6.80;5.22;;;13.00;99.90;;;;;;5048070;28;20086;-77
2022/06/22 00:34:10;;;;;;;7.28;5.85;;;12.80;99.90;;;;;;5048135;28;20450;-77
2022/06/22 00:36:38;;;;;;;7.35;5.82;;;12.70;99.90;;;;;;5047769;28;20068;-78
2022/06/22 00:39:15;;;;;;;6.97;6.10;;;12.50;99.90;;;;;;5046211;28;20036;-77
2022/06/22 00:41:44;;;;;;;7.65;6.00;;;12.40;99.90;;;;;;5049266;28;20036;-77
2022/06/22 00:44:12;;;;;;;7.78;6.43;;;12.50;99.90;;;;;;5047424;28;20036;-77
2022/06/22 00:46:48;;;;;;;7.35;6.60;;;12.50;99.90;;;;;;5048984;28;20045;-77
2022/06/22 00:49:20;;;;;;;8.15;5.50;;;12.40;99.90;;;;;;5057735;28;20115;-77
2022/06/22 00:51:46;;;;;;;7.03;5.90;;;12.40;99.90;;;;;;5050416;28;20100;-77
2022/06/22 00:54:16;;;;;;;7.95;5.85;;;12.30;99.90;;;;;;5046643;28;20507;-77
2022/06/22 00:56:51;;;;;;;6.18;5.55;;;12.20;99.90;;;;;;5048087;28;20069;-78
2022/06/22 00:59:20;;;;;;;6.30;5.70;;;12.30;99.90;;;;;;5045120;28;20072;-77
2022/06/22 01:02:09;;;;;;;6.10;5.50;;;12.30;99.90;;;;;;5045523;28;20083;-77
2022/06/22 01:04:55;;;;;;;5.45;4.93;;;12.40;99.90;;;;;;5047295;28;20388;-78
2022/06/22 01:07:36;;;;;;;5.90;5.30;;;12.40;99.90;;;;;;5048927;28;20037;-77
2022/06/22 01:10:42;;;;;;;6.40;5.68;;;12.40;99.90;;;;;;5044570;28;20060;-77
2022/06/22 01:13:19;;;;;;;6.25;5.65;;;12.40;99.90;;;;;;5036824;28;20499;-77
2022/06/22 01:16:02;;;;;;;6.88;5.38;;;12.40;99.90;;;;;;5045154;28;20047;-77
2022/06/22 01:18:48;;;;;;;6.13;5.53;;;12.30;99.90;;;;;;5047196;28;20043;-78
2022/06/22 01:21:27;;;;;;;7.18;5.63;;;12.20;99.90;;;;;;5045966;28;20033;-78
2022/06/22 01:24:31;;;;;;;5.68;5.07;;;12.10;99.90;;;;;;5048141;28;20041;-77
2022/06/22 01:27:23;;;;;;;7.85;5.80;;;11.90;99.90;;;;;;5045910;28;20059;-77
2022/06/22 01:29:51;;;;;;;7.40;6.15;;;11.80;99.90;;;;;;5046878;28;21237;-77
2022/06/22 01:32:22;;;;;;;6.88;6.18;;;11.80;99.90;;;;;;5043316;28;20041;-77
2022/06/22 01:34:48;;;;;;;6.50;5.80;;;11.80;99.90;;;;;;5028105;28;20123;-77
2022/06/22 01:37:26;;;;;;;7.40;6.05;;;11.90;99.90;;;;;;5047608;28;20045;-76
2022/06/22 01:40:16;;;;;;;8.02;6.75;;;11.90;99.90;;;;;;5047130;28;20060;-77
2022/06/22 01:42:59;;;;;;;7.90;5.90;;;11.80;99.90;;;;;;5048210;28;20056;-77
2022/06/22 01:45:42;;;;;;;9.40;5.80;;;11.80;99.90;;;;;;5048089;28;20513;-78
2022/06/22 01:48:29;;;;;;;8.90;6.18;;;11.60;99.90;;;;;;5044197;28;20073;-77
2022/06/22 01:51:01;;;;;;;7.80;6.78;;;11.50;99.90;;;;;;5046831;28;20452;-78
2022/06/22 01:53:32;;;;;;;9.40;7.97;;;11.60;99.90;;;;;;5047150;28;20045;-78
2022/06/22 01:56:19;;;;;;;8.50;7.03;;;11.60;99.90;;;;;;5061565;28;20559;-77
2022/06/22 01:59:10;;;;;;;8.40;6.47;;;11.50;99.90;;;;;;5047112;28;20045;-77
2022/06/22 02:01:45;;;;;;;8.43;7.10;;;11.40;99.90;;;;;;5045919;28;20045;-77
2022/06/22 02:04:30;;;;;;;7.57;6.78;;;11.40;99.90;;;;;;5045023;28;20124;-77
2022/06/22 02:10:15;;;;;;;7.18;6.07;;;11.50;99.90;;;;;;5047537;28;20049;-78
2022/06/22 02:12:52;;;;;;;5.30;4.65;;;11.50;99.90;;;;;;5047931;28;20476;-77
2022/06/22 02:15:41;;;;;;;2.80;2.33;;;11.50;99.90;;;;;;5045764;28;20079;-78
2022/06/22 02:18:29;;;;;;;1.58;1.10;;;11.50;99.90;;;;;;5044052;28;20037;-78
2022/06/22 02:20:55;;;;;;;3.65;2.08;;;11.50;99.90;;;;;;5045036;28;20044;-77
2022/06/22 02:23:32;;;;;;;2.90;2.50;;;11.50;99.90;;;;;;5047094;28;20029;-78
2022/06/22 02:26:16;;;;;;;3.60;2.65;;;11.50;99.90;;;;;;5045340;28;20040;-78
2022/06/22 02:28:43;;;;;;;3.75;2.60;;;11.40;99.90;;;;;;5046921;28;20075;-78
2022/06/22 02:31:10;;;;;;;2.63;2.00;;;11.40;99.90;;;;;;5046424;28;20048;-78
2022/06/22 02:33:39;;;;;;;4.22;2.40;;;11.30;99.90;;;;;;5046074;28;20045;-77
2022/06/22 02:36:05;;;;;;;5.03;4.18;;;11.30;99.90;;;;;;5046329;28;20052;-78
2022/06/22 02:38:31;;;;;;;6.82;5.13;;;11.30;99.90;;;;;;5046205;28;20032;-77
2022/06/22 02:46:37;;;;;;;5.22;4.72;;;11.20;99.90;;;;;;5047035;28;20123;-78
2022/06/22 02:49:10;;;;;;;7.28;6.50;;;10.90;99.90;;;;;;5045462;28;20044;-77
2022/06/22 02:51:41;;;;;;;;;;;10.90;99.90;;;;;;5029952;28;20044;-77
2022/06/22 02:54:19;;;;;;;6.82;5.50;;;10.90;99.90;;;;;;5037723;28;19929;-77
2022/06/22 02:56:47;;;;;;;8.43;6.80;;;10.70;99.90;;;;;;5044794;28;20095;-78
2022/06/22 02:59:14;;;;;;;11.73;7.15;;;10.70;99.90;;;;;;5047148;28;20755;-78
2022/06/22 03:01:40;;;;;;;7.72;6.93;;;10.60;99.90;;;;;;5044074;28;20123;-78
2022/06/22 03:04:11;;;;;;;8.70;7.20;;;10.50;99.90;;;;;;5044278;28;20123;-77
2022/06/22 03:06:42;;;;;;;8.00;7.00;;;10.50;99.90;;;;;;5049852;28;20077;-77
2022/06/22 03:09:09;;;;;;;7.65;6.85;;;10.50;99.90;;;;;;5050484;28;20099;-77
2022/06/22 03:11:40;;;;;;;8.60;7.07;;;10.50;99.90;;;;;;5050647;28;20041;-77
2022/06/22 03:14:12;;;;;;;7.78;6.82;;;10.40;99.90;;;;;;5047642;28;20568;-77
2022/06/22 03:16:42;;;;;;;8.02;5.90;;;10.30;99.90;;;;;;5045673;28;20045;-77
2022/06/22 03:19:17;;;;;;;7.90;6.38;;;10.30;99.90;;;;;;5046009;28;20526;-78
2022/06/22 03:21:43;;;;;;;8.43;6.53;;;10.30;99.90;;;;;;5062769;28;20581;-77
2022/06/22 03:24:51;;;;;;;9.02;6.07;;;10.40;99.90;;;;;;5046741;28;20119;-77
2022/06/22 03:27:22;;;;;;;8.68;6.55;;;10.50;99.90;;;;;;5035196;28;20049;-77
2022/06/22 03:30:01;;;;;;;7.93;6.15;;;10.40;99.90;;;;;;5043758;28;20135;-77
2022/06/22 03:32:36;;;;;;;6.93;5.90;;;10.50;99.90;;;;;;5047378;28;20415;-78
2022/06/22 03:35:11;;;;;;;8.48;6.45;;;10.40;99.90;;;;;;5043614;28;20049;-78
2022/06/22 03:37:46;;;;;;;7.88;6.50;;;10.40;99.90;;;;;;5045207;28;20037;-77
2022/06/22 03:40:19;;;;;;;7.60;6.28;;;10.30;99.90;;;;;;5043858;28;20037;-78
2022/06/22 03:42:49;;;;;;;6.20;4.88;;;10.30;99.90;;;;;;5044817;28;20111;-77
2022/06/22 03:45:24;;;;;;;8.43;6.20;;;10.40;99.90;;;;;;5043993;28;20056;-78
2022/06/22 03:48:05;;;;;;;9.05;6.18;;;10.30;99.90;;;;;;5043321;28;21811;-78
2022/06/22 03:50:56;;;;;;;6.50;5.22;;;10.30;99.90;;;;;;5044600;28;20067;-77
2022/06/22 03:53:32;;;;;;;5.05;4.20;;;10.30;99.90;;;;;;5044975;28;20048;-77
2022/06/22 03:56:04;;;;;;;5.20;4.18;;;10.30;99.90;;;;;;5048998;28;20453;-77
2022/06/22 03:58:30;;;;;;;4.93;3.70;;;10.40;99.90;;;;;;5044621;28;20493;-77
2022/06/22 04:00:57;;;;;;;7.40;4.65;;;10.40;99.90;;;;;;5044558;28;20135;-77
2022/06/22 04:03:23;;;;;;;39.55;5.82;;;10.40;99.90;;;;;;5046790;28;20095;-78
2022/06/22 04:05:55;;;;;;;15.98;5.95;;;10.50;99.90;;;;;;5048631;28;20072;-77
2022/06/22 04:08:31;;;;;;;26.90;6.18;;;10.60;99.90;;;;;;5045431;28;20091;-77
2022/06/22 04:10:58;;;;;;;12.88;5.75;;;10.60;99.90;;;;;;5045536;28;20033;-78
2022/06/22 04:13:36;;;;;;;22.60;6.53;;;10.60;99.90;;;;;;5046278;28;20494;-77
2022/06/22 04:16:05;;;;;;;7.95;6.00;;;10.60;99.90;;;;;;5045118;28;20068;-78
2022/06/22 04:18:36;;;;;;;7.47;5.40;;;10.70;99.90;;;;;;5044263;28;20029;-77
2022/06/22 04:21:08;;;;;;;7.15;5.53;;;10.80;99.90;;;;;;5044747;28;20043;-77
2022/06/22 04:23:40;;;;;;;9.30;5.68;;;10.80;99.90;;;;;;5043727;28;20154;-77
2022/06/22 04:26:18;;;;;;;5.93;5.30;;;10.90;99.90;;;;;;5046757;28;20041;-77
2022/06/22 04:28:47;;;;;;;5.78;4.80;;;10.90;99.90;;;;;;5046308;28;20033;-78
2022/06/22 04:31:20;;;;;;;7.95;5.35;;;11.00;99.90;;;;;;5043941;28;20552;-77
2022/06/22 04:33:50;;;;;;;6.55;5.40;;;11.10;99.90;;;;;;5043849;28;20107;-77
2022/06/22 04:36:24;;;;;;;6.78;5.50;;;11.10;99.90;;;;;;5046387;28;20041;-77
2022/06/22 04:39:04;;;;;;;6.13;5.35;;;11.30;99.90;;;;;;5042678;28;20037;-77
2022/06/22 04:41:35;;;;;;;9.25;6.38;;;11.30;99.90;;;;;;5043670;28;20033;-77
2022/06/22 04:44:13;;;;;;;6.75;6.05;;;11.40;99.90;;;;;;5042581;28;20052;-78
2022/06/22 04:46:43;;;;;;;6.72;5.88;;;11.50;99.90;;;;;;5046852;28;20446;-78
2022/06/22 04:49:36;;;;;;;9.25;6.20;;;11.60;99.90;;;;;;5045639;28;20055;-77
2022/06/22 04:52:17;;;;;;;5.80;5.20;;;11.80;99.90;;;;;;5041688;28;20045;-77
2022/06/22 04:54:44;;;;;;;7.03;5.03;;;11.90;99.90;;;;;;5044113;28;20056;-77
2022/06/22 04:57:21;;;;;;;7.55;5.40;;;12.00;99.90;;;;;;5045829;28;20037;-77
2022/06/22 04:59:48;;;;;;;8.68;5.80;;;12.10;99.90;;;;;;5043644;28;20438;-77
2022/06/22 05:02:17;;;;;;;7.25;6.55;;;12.00;99.90;;;;;;5044391;28;20147;-77
2022/06/22 05:04:46;;;;;;;9.40;6.60;;;12.00;99.90;;;;;;5042283;28;20052;-77
2022/06/22 05:07:31;;;;;;;8.38;6.97;;;12.00;99.90;;;;;;5045543;28;20045;-77
2022/06/22 05:10:06;;;;;;;8.77;7.20;;;12.10;99.90;;;;;;5049235;28;20041;-78
2022/06/22 05:12:44;;;;;;;9.23;7.28;;;12.20;99.90;;;;;;5048962;28;20080;-77
2022/06/22 05:15:18;;;;;;;8.50;6.63;;;12.30;99.90;;;;;;5045355;28;20060;-78
2022/06/22 05:17:43;;;;;;;;;;;12.50;99.90;;;;;;5048123;28;20041;-78
2022/06/22 05:20:23;;;;;;;8.38;6.43;;;12.60;99.90;;;;;;5048652;28;19936;-76
2022/06/22 05:22:50;;;;;;;8.68;6.55;;;12.70;99.90;;;;;;5046806;28;20114;-78
2022/06/22 05:25:17;;;;;;;7.97;7.13;;;12.80;99.90;;;;;;5046344;28;20045;-77
2022/06/22 05:28:01;;;;;;;8.50;7.43;;;13.00;99.90;;;;;;5046854;28;20045;-78
2022/06/22 05:30:35;;;;;;;10.75;7.53;;;13.10;99.90;;;;;;5048064;28;20072;-78
2022/06/22 05:33:06;;;;;;;19.90;9.25;;;13.20;99.90;;;;;;5048351;28;20136;-78
2022/06/22 05:35:37;;;;;;;9.45;7.28;;;13.30;99.90;;;;;;5045203;28;20129;-78
2022/06/22 05:38:06;;;;;;;10.00;7.65;;;13.50;99.90;;;;;;5047939;28;20150;-78
2022/06/22 05:40:34;;;;;;;10.27;7.85;;;13.60;99.90;;;;;;5047345;28;20120;-78
2022/06/22 05:42:59;;;;;;;10.30;7.82;;;13.70;99.90;;;;;;5045991;28;20053;-77
2022/06/22 05:45:29;;;;;;;10.13;7.95;;;13.90;99.90;;;;;;5046598;28;20049;-78
2022/06/22 05:47:56;;;;;;;11.73;8.55;;;14.10;99.90;;;;;;5044636;28;20045;-78
2022/06/22 05:50:31;;;;;;;9.75;8.65;;;14.10;99.90;;;;;;5046532;28;20045;-77
2022/06/22 05:53:10;;;;;;;12.52;8.23;;;14.30;99.90;;;;;;5046590;28;20180;-78
2022/06/22 05:55:44;;;;;;;10.98;8.30;;;14.50;99.90;;;;;;5047246;28;20045;-78
2022/06/22 05:58:26;;;;;;;13.30;8.70;;;14.70;99.90;;;;;;5050490;28;20068;-77
2022/06/22 06:00:54;;;;;;;12.82;8.73;;;15.00;99.90;;;;;;5048110;28;20044;-78
2022/06/22 06:03:28;;;;;;;12.15;9.30;;;15.10;99.90;;;;;;5047497;28;20060;-77
2022/06/22 06:06:02;;;;;;;11.95;8.57;;;15.30;99.90;;;;;;5047385;28;20403;-77
2022/06/22 06:08:44;;;;;;;11.15;8.68;;;15.30;99.90;;;;;;5046405;28;20107;-77
2022/06/22 06:11:20;;;;;;;9.30;7.30;;;15.50;99.90;;;;;;5048856;28;20495;-77
2022/06/22 06:13:59;;;;;;;11.57;8.98;;;15.70;99.90;;;;;;5047715;28;20120;-79
2022/06/22 06:16:29;;;;;;;11.77;8.45;;;15.80;99.90;;;;;;5052885;28;20049;-78
2022/06/22 06:18:59;;;;;;;13.32;8.90;;;16.00;99.90;;;;;;5050885;28;20461;-78
2022/06/22 06:21:32;;;;;;;17.38;9.82;;;16.20;99.90;;;;;;5048039;28;20430;-78
2022/06/22 06:24:03;;;;;;;13.93;8.90;;;16.20;99.90;;;;;;5044476;28;20395;-78
2022/06/22 06:29:25;;;;;;;12.48;9.45;;;16.40;99.90;;;;;;5046621;28;20049;-79
2022/06/22 06:32:34;;;;;;;10.38;8.77;;;16.50;99.90;;;;;;5046613;28;20049;-78
2022/06/22 06:35:09;;;;;;;10.75;8.75;;;16.50;99.90;;;;;;5028961;28;20092;-78
2022/06/22 06:37:48;;;;;;;13.25;9.23;;;16.70;99.90;;;;;;5051375;28;20189;-77
2022/06/22 06:40:22;;;;;;;13.85;8.85;;;16.70;99.90;;;;;;5045541;28;20036;-78
2022/06/22 06:43:13;;;;;;;13.00;8.20;;;16.90;99.90;;;;;;5047581;28;20170;-78
2022/06/22 06:45:40;;;;;;;12.77;8.27;;;17.10;99.90;;;;;;5039765;28;20090;-78
2022/06/22 06:48:12;;;;;;;13.07;8.73;;;17.20;99.90;;;;;;5045482;28;20053;-78
2022/06/22 06:50:47;;;;;;;10.65;8.35;;;17.40;99.90;;;;;;5046898;28;20036;-78
2022/06/22 06:53:28;;;;;;;11.82;8.10;;;17.50;99.90;;;;;;5047490;28;20407;-79
2022/06/22 06:55:59;;;;;;;10.85;8.27;;;17.70;99.90;;;;;;5045657;28;20506;-78
2022/06/22 06:58:31;;;;;;;12.65;8.23;;;17.80;99.90;;;;;;5044568;28;20072;-79
2022/06/22 07:00:57;;;;;;;12.43;7.63;;;17.90;99.90;;;;;;5047775;28;20040;-80
2022/06/22 07:03:30;;;;;;;12.40;7.85;;;18.00;99.90;;;;;;5049987;28;20045;-79
2022/06/22 07:05:55;;;;;;;12.47;7.93;;;18.10;99.90;;;;;;5048306;28;20041;-80
2022/06/22 07:08:29;;;;;;;12.43;7.95;;;18.20;99.90;;;;;;5051890;28;20094;-80
2022/06/22 07:11:07;;;;;;;9.30;7.25;;;18.30;99.90;;;;;;5053235;28;20044;-80
2022/06/22 07:13:43;;;;;;;9.40;5.25;;;18.30;99.90;;;;;;5033245;28;20399;-79
2022/06/22 07:16:14;;;;;;;8.00;4.50;;;18.30;99.90;;;;;;5031596;28;20423;-79
2022/06/22 07:18:44;;;;;;;9.23;4.60;;;18.50;99.90;;;;;;5030894;28;20045;-78
2022/06/22 07:21:32;;;;;;;6.82;4.80;;;18.60;99.90;;;;;;5033952;28;20029;-79
2022/06/22 07:24:12;;;;;;;8.60;4.40;;;18.60;99.90;;;;;;5031329;28;20044;-79
2022/06/22 07:26:55;;;;;;;10.02;4.78;;;18.80;99.90;;;;;;5045217;28;20541;-79
2022/06/22 07:29:23;;;;;;;8.18;4.10;;;18.80;99.90;;;;;;5045064;28;20045;-80
2022/06/22 07:32:08;;;;;;;6.75;4.20;;;18.80;99.90;;;;;;5046313;28;20044;-79
2022/06/22 07:35:15;;;;;;;8.38;3.78;;;19.00;99.90;;;;;;5043473;28;20042;-79
2022/06/22 07:37:50;;;;;;;8.27;3.20;;;19.00;99.90;;;;;;5030547;28;20395;-79
2022/06/22 07:40:21;;;;;;;10.50;3.60;;;19.00;99.90;;;;;;5030314;28;20503;-79
2022/06/22 07:42:49;;;;;;;12.30;3.85;;;18.90;99.90;;;;;;5030641;28;20151;-79
2022/06/22 07:45:17;;;;;;;7.65;3.40;;;18.80;99.90;;;;;;5029972;28;20046;-80
2022/06/22 07:48:01;;;;;;;7.20;3.38;;;18.90;99.90;;;;;;5033608;28;20116;-79
2022/06/22 07:50:34;;;;;;;8.48;3.28;;;19.00;99.90;;;;;;5034126;28;20044;-79
2022/06/22 07:53:06;;;;;;;12.07;4.00;;;19.30;99.90;;;;;;5051771;28;20079;-79
2022/06/22 07:56:05;;;;;;;7.53;3.53;;;19.40;99.90;;;;;;5051566;28;20461;-78
2022/06/22 07:58:49;;;;;;;9.02;3.85;;;19.40;99.90;;;;;;5051299;28;20044;-79
2022/06/22 08:01:19;;;;;;;6.60;3.22;;;19.40;99.90;;;;;;5041440;28;20045;-80
2022/06/22 08:03:55;;;;;;;8.00;3.65;;;19.50;99.90;;;;;;5051460;28;20444;-79
2022/06/22 08:06:27;;;;;;;9.35;4.22;;;19.60;99.90;;;;;;5053135;28;20049;-79
2022/06/22 08:09:00;;;;;;;8.35;3.45;;;19.90;99.90;;;;;;5051787;28;20038;-80
2022/06/22 08:11:41;;;;;;;10.70;4.57;;;20.00;99.90;;;;;;5050722;28;20037;-79
2022/06/22 08:14:27;;;;;;;9.73;4.70;;;20.20;99.90;;;;;;5050708;28;20052;-80
2022/06/22 08:17:00;;;;;;;12.13;4.57;;;20.30;99.90;;;;;;5051268;28;20068;-79
2022/06/22 08:19:28;;;;;;;8.73;4.15;;;20.10;99.90;;;;;;5053933;28;20052;-80
2022/06/22 08:21:58;;;;;;;7.25;3.60;;;20.20;99.90;;;;;;5044677;28;20513;-79
2022/06/22 08:24:24;;;;;;;8.82;3.85;;;20.20;99.90;;;;;;5051374;28;20113;-80
2022/06/22 08:26:53;;;;;;;9.25;3.47;;;20.30;99.90;;;;;;5051202;28;20056;-80
2022/06/22 08:29:22;;;;;;;7.63;3.22;;;20.30;99.90;;;;;;5050475;28;20049;-79
2022/06/22 08:32:02;;;;;;;7.43;3.40;;;20.40;99.90;;;;;;5051583;28;20041;-81
2022/06/22 08:34:45;;;;;;;8.02;3.47;;;20.50;99.90;;;;;;5051678;28;20057;-79
2022/06/22 08:37:20;;;;;;;7.32;3.80;;;20.60;99.90;;;;;;5053685;28;20102;-79
2022/06/22 08:40:14;;;;;;;8.63;3.88;;;20.50;99.90;;;;;;5052509;28;20037;-79
2022/06/22 08:42:58;;;;;;;6.43;3.80;;;20.40;99.90;;;;;;5022500;28;20053;-80
2022/06/22 08:45:40;;;;;;;7.63;4.05;;;20.40;99.90;;;;;;5040405;28;20053;-79
2022/06/22 08:48:32;;;;;;;7.28;3.80;;;20.70;99.90;;;;;;5055410;28;20407;-79
2022/06/22 08:51:21;;;;;;;7.10;3.85;;;20.50;99.90;;;;;;5053316;28;20493;-79
2022/06/22 08:54:08;;;;;;;7.10;3.85;;;20.40;99.90;;;;;;5053506;28;20565;-78
2022/06/22 08:56:59;;;;;;;7.88;3.75;;;20.30;99.90;;;;;;5053944;28;20079;-79
2022/06/22 08:59:44;;;;;;;8.35;3.95;;;20.30;99.90;;;;;;5053622;28;20380;-79
2022/06/22 09:02:19;;;;;;;7.90;4.85;;;20.30;99.90;;;;;;5053624;28;20064;-79
2022/06/22 09:05:32;;;;;;;9.75;4.32;;;20.30;99.90;;;;;;5053284;28;20091;-78
2022/06/22 09:08:18;;;;;;;12.45;4.63;;;20.60;99.90;;;;;;5049954;28;20107;-79
2022/06/22 09:10:50;;;;;;;12.48;4.82;;;20.60;99.90;;;;;;5051493;28;20041;-81
2022/06/22 09:13:27;;;;;;;8.80;4.30;;;20.80;99.90;;;;;;5055440;28;20494;-81
2022/06/22 09:16:23;;;;;;;10.30;4.50;;;21.00;99.90;;;;;;5049925;28;20045;-80
2022/06/22 09:18:55;;;;;;;9.88;4.95;;;21.00;99.90;;;;;;5047963;28;20045;-80
2022/06/22 09:21:36;;;;;;;8.63;4.45;;;21.20;99.90;;;;;;5049643;28;20044;-79
2022/06/22 09:24:16;;;;;;;8.68;4.30;;;21.30;99.90;;;;;;5053448;28;20048;-80
2022/06/22 09:27:10;;;;;;;7.55;3.83;;;21.40;99.90;;;;;;5039908;28;20492;-78
2022/06/22 09:30:13;;;;;;;8.27;4.10;;;21.40;99.90;;;;;;5046581;28;20446;-79
2022/06/22 09:33:05;;;;;;;8.05;4.07;;;21.30;99.90;;;;;;5046786;28;20045;-76
2022/06/22 09:36:06;;;;;;;9.00;3.92;;;21.40;99.90;;;;;;5044802;28;20049;-80
2022/06/22 09:39:01;;;;;;;7.45;3.80;;;21.50;99.90;;;;;;5047846;28;20525;-82
2022/06/22 09:41:52;;;;;;;8.80;3.53;;;21.70;99.90;;;;;;5048619;28;20601;-80
2022/06/22 09:44:49;;;;;;;8.05;3.70;;;21.80;99.90;;;;;;5047685;28;20063;-79
2022/06/22 09:47:51;;;;;;;9.20;4.15;;;21.80;99.90;;;;;;5030453;28;20056;-81
2022/06/22 09:50:34;;;;;;;9.23;4.13;;;21.90;99.90;;;;;;5063254;28;20060;-80
2022/06/22 09:53:43;;;;;;;7.22;3.80;;;21.90;99.90;;;;;;5050093;28;20107;-81
2022/06/22 09:56:22;;;;;;;7.65;3.85;;;21.90;99.90;;;;;;5055702;28;20056;-81
2022/06/22 09:59:06;;;;;;;6.53;3.40;;;21.60;99.90;;;;;;5052426;28;20041;-80
2022/06/22 10:02:09;;;;;;;7.13;3.72;;;21.50;99.90;;;;;;5045779;28;20044;-80
2022/06/22 10:04:44;;;;;;;7.78;3.90;;;21.40;99.90;;;;;;5051229;28;20044;-82
2022/06/22 10:07:24;;;;;;;9.18;3.78;;;21.30;99.90;;;;;;5043074;28;20041;-81
2022/06/22 10:10:05;;;;;;;8.43;3.42;;;21.40;99.90;;;;;;5041046;28;20041;-81
2022/06/22 10:13:06;;;;;;;7.35;3.75;;;21.70;99.90;;;;;;5044225;28;20049;-81
2022/06/22 10:15:49;;;;;;;8.52;3.40;;;22.00;99.90;;;;;;5046450;28;20449;-81
2022/06/22 10:18:35;;;;;;;10.02;3.80;;;22.20;99.90;;;;;;5047777;28;20037;-80
2022/06/22 10:21:39;;;;;;;7.70;3.40;;;22.50;99.90;;;;;;5045298;28;20048;-80
2022/06/22 10:24:35;;;;;;;8.02;3.97;;;22.60;99.90;;;;;;5052643;28;20109;-80
2022/06/22 10:27:38;;;;;;;6.43;3.92;;;22.80;99.90;;;;;;5051614;28;20049;-81
2022/06/22 10:30:22;;;;;;;7.32;3.72;;;22.80;99.90;;;;;;5032346;28;20057;-82
2022/06/22 10:33:24;;;;;;;7.40;3.80;;;22.90;99.90;;;;;;5052654;28;20376;-81
2022/06/22 10:36:06;;;;;;;7.45;3.50;;;22.90;99.90;;;;;;5050099;28;20510;-80
2022/06/22 10:38:50;;;;;;;8.85;4.63;;;23.10;99.90;;;;;;5049246;28;20090;-80
2022/06/22 10:45:09;;;;;;;8.95;3.90;;;23.40;99.90;;;;;;5003050;28;19969;-80
2022/06/22 10:48:05;;;;;;;6.90;3.85;;;23.50;99.90;;;;;;5010844;28;20121;-80
2022/06/22 10:50:52;;;;;;;9.27;4.10;;;23.50;99.90;;;;;;5042864;28;20040;-81
2022/06/22 10:53:55;;;;;;;9.95;4.50;;;23.60;99.90;;;;;;5048501;28;20100;-80
2022/06/22 10:56:49;;;;;;;7.57;4.03;;;23.80;99.90;;;;;;5054257;28;20568;-81
2022/06/22 10:59:24;;;;;;;5.95;3.80;;;23.90;99.80;;;;;;5052219;28;20100;-80
2022/06/22 11:02:27;;;;;;;8.27;3.97;;;24.00;99.30;;;;;;5048228;28;20106;-78
2022/06/22 11:05:02;;;;;;;7.13;3.63;;;24.10;99.50;;;;;;5035574;28;20059;-79
2022/06/22 11:07:49;;;;;;;7.95;3.97;;;24.10;99.70;;;;;;5054511;28;20210;-80
2022/06/22 11:10:41;;;;;;;10.23;4.05;;;24.00;98.50;;;;;;5054854;28;20087;-80
2022/06/22 11:13:06;;;;;;;7.35;3.70;;;24.10;97.80;;;;;;5053768;28;20051;-80
2022/06/22 11:15:57;;;;;;;8.63;4.10;;;24.20;99.10;;;;;;5053543;28;20045;-81
2022/06/22 11:19:06;;;;;;;8.00;3.65;;;24.30;97.90;;;;;;5031214;28;20075;-79
2022/06/22 11:21:50;;;;;;;8.68;3.58;;;24.40;98.90;;;;;;5052576;28;20041;-81
2022/06/22 11:24:40;;;;;;;8.85;4.30;;;24.60;99.10;;;;;;5051715;28;20107;-81
2022/06/22 11:33:24;;;;;;;8.63;4.32;;;25.00;98.10;;;;;;5052136;28;20037;-79
2022/06/22 11:36:01;;;;;;;9.23;4.32;;;24.70;97.80;;;;;;5048076;28;20040;-80
2022/06/22 11:38:46;;;;;;;7.90;3.38;;;24.70;97.40;;;;;;5049527;28;20089;-80
2022/06/22 11:41:34;;;;;;;10.65;4.03;;;25.00;98.10;;;;;;5047684;28;20060;-81
2022/06/22 11:44:44;;;;;;;9.05;4.10;;;25.40;98.80;;;;;;5047525;28;20077;-80
2022/06/22 11:47:29;;;;;;;8.43;4.63;;;25.70;98.70;;;;;;5050516;28;20467;-81
2022/06/22 11:50:13;;;;;;;7.55;4.20;;;26.00;98.00;;;;;;5048860;28;20675;-80
2022/06/22 11:53:05;;;;;;;;;;;25.70;96.70;;;;;;5047565;28;20036;-80
2022/06/22 11:55:48;;;;;;;7.32;3.90;;;25.20;96.50;;;;;;5044695;28;19921;-81
2022/06/22 11:58:38;;;;;;;7.63;4.05;;;25.50;97.20;;;;;;5044667;28;20052;-80
2022/06/22 12:01:36;;;;;;;12.90;4.57;;;25.60;96.50;;;;;;5068245;28;20044;-82
2022/06/22 12:04:46;;;;;;;7.90;4.55;;;26.00;97.40;;;;;;5050407;28;20044;-80
2022/06/22 12:07:29;;;;;;;6.88;3.72;;;26.20;94.30;;;;;;5026920;28;20048;-81
2022/06/22 12:10:22;;;;;;;7.35;3.90;;;26.60;96.40;;;;;;5050414;28;20437;-81
2022/06/22 12:12:56;;;;;;;11.73;4.80;;;26.40;96.20;;;;;;5050919;28;20120;-81
2022/06/22 12:15:45;;;;;;;11.88;4.20;;;26.70;96.20;;;;;;5052206;28;20159;-82
2022/06/22 12:18:29;;;;;;;8.98;3.88;;;27.00;96.00;;;;;;5050919;28;20048;-82
2022/06/22 12:21:12;;;;;;;9.02;4.30;;;27.20;96.50;;;;;;5057329;28;20108;-81
2022/06/22 12:23:53;;;;;;;7.85;4.05;;;27.50;95.90;;;;;;5057937;28;20041;-81
2022/06/22 12:26:43;;;;;;;8.55;4.22;;;27.60;95.40;;;;;;5052812;28;20051;-82
2022/06/22 12:29:33;;;;;;;6.00;4.00;;;27.80;94.90;;;;;;5051290;28;20394;-82
2022/06/22 12:32:13;;;;;;;9.48;3.70;;;27.80;93.20;;;;;;5051896;28;20116;-82
2022/06/22 12:35:18;;;;;;;8.88;4.07;;;27.30;94.70;;;;;;5053722;28;20056;-81
2022/06/22 12:37:46;;;;;;;;;;;27.10;94.50;;;;;;5052299;28;20040;-81
2022/06/22 12:40:24;;;;;;;11.07;4.53;;;27.30;94.70;;;;;;5059437;28;20003;-81
2022/06/22 12:43:25;;;;;;;8.35;4.50;;;27.50;95.00;;;;;;5057206;28;20040;-82
2022/06/22 12:46:02;;;;;;;8.13;3.70;;;27.50;93.40;;;;;;5059187;28;20045;-81
2022/06/22 12:48:57;;;;;;;9.10;4.13;;;27.50;93.90;;;;;;5060405;28;20437;-81
2022/06/22 12:51:45;;;;;;;9.30;3.85;;;27.90;94.50;;;;;;5040115;28;20259;-80
2022/06/22 12:54:19;;;;;;;10.57;4.40;;;28.00;94.60;;;;;;5047035;28;20115;-80
2022/06/22 12:57:11;;;;;;;8.10;4.00;;;28.10;93.50;;;;;;5051839;28;20048;-81
2022/06/22 13:00:03;;;;;;;7.47;3.95;;;27.60;92.80;;;;;;5050298;28;20033;-82
2022/06/22 13:02:31;;;;;;;5.93;3.25;;;27.40;93.50;;;;;;5056083;28;20055;-81
2022/06/22 13:05:13;;;;;;;7.80;3.88;;;27.70;93.70;;;;;;5038854;28;20048;-81
2022/06/22 13:07:50;;;;;;;8.60;3.65;;;27.80;92.30;;;;;;5057240;28;20040;-81
2022/06/22 13:10:28;;;;;;;8.75;4.00;;;27.40;93.40;;;;;;5057514;28;20060;-81
2022/06/22 13:13:07;;;;;;;8.25;3.28;;;27.80;93.50;;;;;;5050744;28;20096;-81
2022/06/22 13:15:45;;;;;;;7.68;3.53;;;28.00;93.60;;;;;;5049851;28;20041;-82
2022/06/22 13:18:11;;;;;;;11.65;3.70;;;28.40;93.00;;;;;;5036462;28;20037;-80
2022/06/22 13:20:42;;;;;;;7.03;3.90;;;28.50;93.30;;;;;;5052409;28;20787;-82
2022/06/22 13:23:25;;;;;;;7.95;4.10;;;28.30;93.20;;;;;;5057084;28;20116;-82
2022/06/22 13:26:06;;;;;;;8.32;3.40;;;28.50;91.30;;;;;;5036485;28;20045;-82
2022/06/22 13:28:48;;;;;;;7.45;3.90;;;27.90;92.00;;;;;;5032933;28;20037;-81
2022/06/22 13:31:30;;;;;;;8.52;4.07;;;28.40;92.60;;;;;;5033674;28;20068;-84
2022/06/22 13:34:00;;;;;;;9.20;3.47;;;28.70;91.80;;;;;;5038195;28;20054;-82
2022/06/22 13:36:48;;;;;;;7.13;3.85;;;28.80;91.90;;;;;;5043050;28;20098;-81
2022/06/22 13:39:39;;;;;;;10.80;3.75;;;28.10;91.60;;;;;;5037664;28;20502;-81
2022/06/22 13:42:34;;;;;;;6.85;3.55;;;28.30;92.30;;;;;;5035909;28;20078;-81
2022/06/22 13:45:21;;;;;;;6.38;3.47;;;28.10;92.00;;;;;;5043079;28;20098;-81
2022/06/22 13:48:14;;;;;;;9.15;3.47;;;28.50;92.00;;;;;;5049645;28;20450;-81
2022/06/22 13:51:18;;;;;;;11.20;4.50;;;28.40;91.90;;;;;;5054002;28;20037;-81
2022/06/22 13:54:27;;;;;;;7.72;3.55;;;28.30;90.50;;;;;;5053847;28;20088;-81
2022/06/22 13:57:07;;;;;;;9.77;4.30;;;28.50;91.70;;;;;;5054656;28;20040;-81
2022/06/22 13:59:46;;;;;;;9.90;4.47;;;28.90;92.00;;;;;;5043644;28;20045;-81
2022/06/22 14:02:36;;;;;;;10.75;5.13;;;28.70;92.10;;;;;;5044836;28;20404;-80
2022/06/22 14:05:07;;;;;;;9.80;5.00;;;28.00;92.70;;;;;;5036624;28;20065;-81
2022/06/22 14:07:40;;;;;;;7.60;4.13;;;27.70;93.50;;;;;;5051200;28;20120;-82
2022/06/22 14:10:28;;;;;;;11.27;5.60;;;27.90;93.40;;;;;;5033107;28;20049;-82
2022/06/22 14:13:07;;;;;;;10.07;5.57;;;27.40;93.20;;;;;;5035080;28;20392;-80